createdAt,value
2023-04-02T00:06:30.388Z,6.54
2023-04-02T00:21:39.892Z,6.53
2023-04-02T00:36:44.466Z,6.49
2023-04-02T00:52:03.041Z,6.39
2023-04-02T01:07:09.982Z,6.32
2023-04-02T01:22:31.483Z,6.20
2023-04-02T01:37:52.924Z,5.98
2023-04-02T01:52:57.632Z,5.93
2023-04-02T02:08:01.608Z,5.82
2023-04-02T02:23:05.161Z,5.67
2023-04-02T02:38:16.976Z,5.52
2023-04-02T02:53:24.645Z,5.53
2023-04-02T03:08:49.627Z,5.45
2023-04-02T03:23:56.818Z,5.21
2023-04-02T03:39:12.765Z,5.19
2023-04-02T03:54:17.026Z,4.98
2023-04-02T04:09:37.664Z,4.90
2023-04-02T04:24:39.702Z,4.81
2023-04-02T04:39:54.764Z,4.74
2023-04-02T04:54:56.723Z,4.42
2023-04-02T05:10:21.916Z,4.30
2023-04-02T05:25:27.589Z,4.18
2023-04-02T05:40:44.829Z,4.11
2023-04-02T05:56:01.607Z,4.15
2023-04-02T06:11:18.884Z,4.02
2023-04-02T06:26:28.079Z,3.94
2023-04-02T06:41:30.197Z,3.93
2023-04-02T06:56:35.001Z,4.15
2023-04-02T07:11:37.408Z,4.21
2023-04-02T07:26:39.540Z,4.08
2023-04-02T07:41:58.829Z,4.25
2023-04-02T07:57:00.886Z,4.15
2023-04-02T08:12:03.026Z,4.24
2023-04-02T08:27:05.274Z,4.19
2023-04-02T08:42:26.958Z,4.08
2023-04-02T08:57:46.971Z,4.32
2023-04-02T09:12:53.338Z,4.40
2023-04-02T09:27:57.573Z,4.07
2023-04-02T09:43:18.036Z,4.21
2023-04-02T09:58:19.879Z,4.08
2023-04-02T10:13:44.968Z,4.26
2023-04-02T10:28:53.011Z,4.45
2023-04-02T10:44:13.050Z,4.49
2023-04-02T10:59:28.885Z,4.45
2023-04-02T11:14:32.521Z,4.55
2023-04-02T11:29:37.754Z,4.46
2023-04-02T11:44:39.845Z,4.49
2023-04-02T12:00:05.368Z,4.49
2023-04-02T12:15:29.092Z,4.50
2023-04-02T12:30:31.234Z,4.48
2023-04-02T12:45:34.710Z,4.36
2023-04-02T13:00:38.010Z,4.35
2023-04-02T13:15:40.284Z,4.25
2023-04-02T13:30:42.583Z,4.14
2023-04-02T13:45:49.817Z,4.17
2023-04-02T14:00:52.640Z,4.14
2023-04-02T14:16:13.071Z,4.01
2023-04-02T14:31:24.917Z,4.01
2023-04-02T14:46:29.532Z,4.08
2023-04-02T15:01:40.603Z,4.09
2023-04-02T15:16:44.873Z,4.14
2023-04-02T15:31:48.713Z,4.29
2023-04-02T15:47:23.566Z,4.40
2023-04-02T16:03:00.266Z,4.53
2023-04-02T16:18:10.169Z,4.69
2023-04-02T16:33:37.201Z,4.73
2023-04-02T16:48:56.470Z,4.79
2023-04-02T17:04:28.159Z,4.87
2023-04-02T17:19:33.136Z,4.76
2023-04-02T17:34:41.093Z,4.73
2023-04-02T17:49:49.951Z,4.62
2023-04-02T18:05:09.624Z,4.45
2023-04-02T18:20:18.004Z,4.36
2023-04-02T18:35:39.236Z,4.46
2023-04-02T18:50:47.019Z,4.65
2023-04-02T19:05:55.327Z,4.69
2023-04-02T19:21:04.472Z,4.63
2023-04-02T19:36:42.647Z,4.50
2023-04-02T19:51:47.662Z,4.32
2023-04-02T20:06:50.576Z,3.97
2023-04-02T20:21:54.751Z,3.70
2023-04-02T20:36:57.038Z,3.43
2023-04-02T20:51:59.741Z,3.30
2023-04-02T21:07:01.904Z,3.39
2023-04-02T21:22:04.030Z,3.35
2023-04-02T21:37:06.223Z,2.92
2023-04-02T21:52:08.275Z,2.60
2023-04-02T22:07:10.369Z,2.26
2023-04-02T22:22:12.383Z,2.12
2023-04-02T22:37:14.466Z,2.05
2023-04-02T22:52:16.446Z,2.06
2023-04-02T23:22:20.494Z,1.87
2023-04-02T23:37:22.471Z,1.61
2023-04-02T23:52:24.485Z,1.39
